createdAt,value
2019-05-26T00:00:44.746Z,31.57
2019-05-26T00:03:22.243Z,31.46
2019-05-26T00:05:59.908Z,31.65
2019-05-26T00:08:39.382Z,31.45
2019-05-26T00:11:18.061Z,31.48
2019-05-26T00:13:54.927Z,31.67
2019-05-26T00:16:32.638Z,31.91
2019-05-26T00:19:10.018Z,32.05
2019-05-26T00:21:47.816Z,32.02
2019-05-26T00:24:25.045Z,32.06
2019-05-26T00:27:02.858Z,32.12
2019-05-26T00:29:39.975Z,32.20
2019-05-26T00:32:18.465Z,32.02
2019-05-26T00:34:56.262Z,32.05
2019-05-26T00:37:48.577Z,32.25
2019-05-26T00:40:14.319Z,32.37
2019-05-26T00:42:52.349Z,32.44
2019-05-26T00:45:30.295Z,32.79
2019-05-26T00:48:07.677Z,32.89
2019-05-26T00:50:45.259Z,32.89
2019-05-26T00:53:23.701Z,32.69
2019-05-26T00:56:01.719Z,32.95
2019-05-26T00:58:39.360Z,33.17
2019-05-26T01:01:16.887Z,32.96
2019-05-26T01:03:57.426Z,32.82
2019-05-26T01:06:34.833Z,32.81
2019-05-26T01:09:13.281Z,32.89
2019-05-26T01:11:52.464Z,33.01
2019-05-26T01:14:30.715Z,32.50
2019-05-26T01:17:07.965Z,32.74
2019-05-26T01:19:45.317Z,33.08
2019-05-26T01:22:23.497Z,33.14
2019-05-26T01:25:02.378Z,33.09
2019-05-26T01:27:40.019Z,33.60
2019-05-26T01:30:17.239Z,33.61
2019-05-26T01:32:54.411Z,33.66
2019-05-26T01:35:32.593Z,33.87
2019-05-26T01:38:23.076Z,33.94
2019-05-26T01:40:50.138Z,33.89
2019-05-26T01:43:29.116Z,33.91
2019-05-26T01:46:06.950Z,33.88
2019-05-26T01:48:44.173Z,34.18
2019-05-26T01:51:21.648Z,34.31
2019-05-26T01:53:58.829Z,33.85
2019-05-26T01:56:37.995Z,34.11
2019-05-26T01:59:15.085Z,33.92
2019-05-26T02:01:52.854Z,34.05
2019-05-26T02:04:30.077Z,34.09
2019-05-26T02:07:08.188Z,34.35
2019-05-26T02:09:45.383Z,34.66
2019-05-26T02:12:23.671Z,34.35
2019-05-26T02:15:02.408Z,34.36
2019-05-26T02:17:40.592Z,34.51
2019-05-26T02:20:19.565Z,34.42
2019-05-26T02:22:56.817Z,34.75
2019-05-26T02:25:34.142Z,34.62
2019-05-26T02:28:12.033Z,34.51
2019-05-26T02:30:49.400Z,35.04
2019-05-26T02:33:27.311Z,35.04
2019-05-26T02:36:04.761Z,34.55
2019-05-26T02:38:59.788Z,34.51
2019-05-26T02:41:21.613Z,34.55
2019-05-26T02:43:58.789Z,34.77
2019-05-26T02:46:37.334Z,35.03
2019-05-26T02:49:15.395Z,35.38
2019-05-26T02:51:52.600Z,35.42
2019-05-26T02:54:30.170Z,34.96
2019-05-26T02:57:07.667Z,34.86
2019-05-26T02:59:45.510Z,34.93
2019-05-26T03:02:22.738Z,35.27
2019-05-26T03:05:00.507Z,35.14
2019-05-26T03:07:40.514Z,34.39
2019-05-26T03:10:19.435Z,34.33
2019-05-26T03:12:57.528Z,34.99
2019-05-26T03:15:36.571Z,34.55
2019-05-26T03:18:16.015Z,35.13
2019-05-26T03:20:53.463Z,35.11
2019-05-26T03:23:33.621Z,34.50
2019-05-26T03:26:11.045Z,35.02
2019-05-26T03:28:48.005Z,35.60
2019-05-26T03:31:26.324Z,35.25
2019-05-26T03:34:03.901Z,34.90
2019-05-26T03:36:41.324Z,35.05
2019-05-26T03:39:18.477Z,34.75
2019-05-26T03:41:56.624Z,34.73
2019-05-26T03:44:33.732Z,35.05
2019-05-26T03:47:10.958Z,35.30
2019-05-26T03:49:49.691Z,35.41
2019-05-26T03:52:28.442Z,35.48
2019-05-26T03:55:05.653Z,35.70
2019-05-26T03:57:45.529Z,35.81
2019-05-26T04:00:23.018Z,35.40
2019-05-26T04:03:01.359Z,35.64
2019-05-26T04:05:38.578Z,35.24
2019-05-26T04:08:16.429Z,35.36
2019-05-26T04:10:53.843Z,35.26
2019-05-26T04:13:31.912Z,34.86
2019-05-26T04:16:09.268Z,34.99
2019-05-26T04:18:46.741Z,34.84
2019-05-26T04:21:25.490Z,34.97
2019-05-26T04:24:04.089Z,35.19
2019-05-26T04:26:41.454Z,35.53
2019-05-26T04:29:19.296Z,35.84
2019-05-26T04:32:01.697Z,35.96
2019-05-26T04:34:36.690Z,35.86
2019-05-26T04:37:13.537Z,36.17
2019-05-26T04:39:50.536Z,36.33
2019-05-26T04:42:27.722Z,36.47
2019-05-26T04:45:05.001Z,36.70
2019-05-26T04:47:42.404Z,36.58
2019-05-26T04:50:19.608Z,36.34
2019-05-26T04:53:06.169Z,36.44
2019-05-26T04:55:38.798Z,36.57
2019-05-26T04:58:17.932Z,36.13
2019-05-26T05:00:55.431Z,36.17
2019-05-26T05:03:33.857Z,36.47
2019-05-26T05:06:12.016Z,36.45
2019-05-26T05:08:49.170Z,36.31
2019-05-26T05:11:26.744Z,36.19
2019-05-26T05:14:04.237Z,36.55
2019-05-26T05:16:42.320Z,36.69
2019-05-26T05:19:19.624Z,36.62
2019-05-26T05:21:56.948Z,37.02
2019-05-26T05:24:37.114Z,36.76
2019-05-26T05:27:15.711Z,36.59
2019-05-26T05:29:53.080Z,35.99
2019-05-26T05:32:32.974Z,35.99
2019-05-26T05:35:10.778Z,35.97
2019-05-26T05:37:48.661Z,35.92
2019-05-26T05:40:26.092Z,36.01
2019-05-26T05:43:03.312Z,35.90
2019-05-26T05:45:41.045Z,36.06
2019-05-26T05:48:20.463Z,36.01
2019-05-26T05:50:57.963Z,36.04
2019-05-26T05:53:35.880Z,36.02
2019-05-26T05:56:14.482Z,36.46
2019-05-26T05:58:52.967Z,36.96
2019-05-26T06:01:31.106Z,36.89
2019-05-26T06:04:08.440Z,35.93
2019-05-26T06:06:46.029Z,36.05
2019-05-26T06:09:23.561Z,36.32
2019-05-26T06:12:00.623Z,36.28
2019-05-26T06:14:39.099Z,36.24
2019-05-26T06:17:16.264Z,36.22
2019-05-26T06:19:54.733Z,36.24
2019-05-26T06:22:32.005Z,35.87
2019-05-26T06:25:10.036Z,36.21
2019-05-26T06:27:48.524Z,36.87
2019-05-26T06:30:26.599Z,36.92
2019-05-26T06:33:04.453Z,36.47
2019-05-26T06:35:42.524Z,36.45
2019-05-26T06:38:19.811Z,36.57
2019-05-26T06:40:57.863Z,36.32
2019-05-26T06:43:35.302Z,35.74
2019-05-26T06:46:13.107Z,35.53
2019-05-26T06:48:50.576Z,36.02
2019-05-26T06:51:28.623Z,36.15
2019-05-26T06:54:05.779Z,36.17
2019-05-26T06:56:43.909Z,36.39
2019-05-26T06:59:22.942Z,36.17
2019-05-26T07:02:01.225Z,36.10
2019-05-26T07:04:38.868Z,36.16
2019-05-26T07:07:16.491Z,36.03
2019-05-26T07:09:53.833Z,36.33
2019-05-26T07:12:31.816Z,35.99
2019-05-26T07:15:09.232Z,35.53
2019-05-26T07:17:47.137Z,35.49
2019-05-26T07:20:24.185Z,35.84
2019-05-26T07:23:02.544Z,35.79
2019-05-26T07:25:40.053Z,36.35
2019-05-26T07:28:17.710Z,36.17
2019-05-26T07:30:56.839Z,36.20
2019-05-26T07:33:34.733Z,35.84
2019-05-26T07:36:12.371Z,35.98
2019-05-26T07:38:51.308Z,36.28
2019-05-26T07:41:28.867Z,36.61
2019-05-26T07:44:06.952Z,36.81
2019-05-26T07:46:44.686Z,35.79
2019-05-26T07:49:22.528Z,35.64
2019-05-26T07:51:59.849Z,35.47
2019-05-26T07:54:37.798Z,35.53
2019-05-26T07:57:15.495Z,35.28
2019-05-26T07:59:53.060Z,35.08
2019-05-26T08:02:31.033Z,35.19
2019-05-26T08:05:09.792Z,35.38
2019-05-26T08:08:11.472Z,35.61
2019-05-26T08:10:36.122Z,35.44
2019-05-26T08:13:13.671Z,35.21
2019-05-26T08:15:52.070Z,35.03
2019-05-26T08:18:29.562Z,35.49
2019-05-26T08:21:07.763Z,35.59
2019-05-26T08:23:45.648Z,35.50
2019-05-26T08:26:22.849Z,35.43
2019-05-26T08:29:00.204Z,35.50
2019-05-26T08:31:37.969Z,35.61
2019-05-26T08:34:15.297Z,35.32
2019-05-26T08:36:53.279Z,35.42
2019-05-26T08:39:30.319Z,35.23
2019-05-26T08:42:09.415Z,35.33
2019-05-26T08:44:46.947Z,35.16
2019-05-26T08:47:24.267Z,35.18
2019-05-26T08:50:01.773Z,35.37
2019-05-26T08:52:39.481Z,35.11
2019-05-26T08:55:17.808Z,35.29
2019-05-26T08:57:55.692Z,35.02
2019-05-26T09:00:32.660Z,34.81
2019-05-26T09:03:10.439Z,34.56
2019-05-26T09:05:47.637Z,34.65
2019-05-26T09:08:25.302Z,34.99
2019-05-26T09:11:02.926Z,35.04
2019-05-26T09:13:41.768Z,35.11
2019-05-26T09:16:20.548Z,34.99
2019-05-26T09:18:58.275Z,35.01
2019-05-26T09:21:36.290Z,34.98
2019-05-26T09:24:13.831Z,35.00
2019-05-26T09:26:52.763Z,35.11
2019-05-26T09:29:30.129Z,34.71
2019-05-26T09:32:08.095Z,34.86
2019-05-26T09:34:46.037Z,34.86
2019-05-26T09:37:23.687Z,34.81
2019-05-26T09:40:01.476Z,34.86
2019-05-26T09:42:38.716Z,34.48
2019-05-26T09:45:16.396Z,34.28
2019-05-26T09:47:53.935Z,34.44
2019-05-26T09:50:31.719Z,34.75
2019-05-26T09:53:09.251Z,34.83
2019-05-26T09:55:47.650Z,34.48
2019-05-26T09:58:26.347Z,34.56
2019-05-26T10:01:04.110Z,34.26
2019-05-26T10:03:41.913Z,34.73
2019-05-26T10:06:20.013Z,34.42
2019-05-26T10:08:58.048Z,34.43
2019-05-26T10:11:35.991Z,34.39
2019-05-26T10:14:13.901Z,34.20
2019-05-26T10:16:53.623Z,34.04
2019-05-26T10:19:31.081Z,33.84
2019-05-26T10:22:09.092Z,33.83
2019-05-26T10:24:46.632Z,33.58
2019-05-26T10:27:24.150Z,33.67
2019-05-26T10:30:02.686Z,33.42
2019-05-26T10:32:40.906Z,33.47
2019-05-26T10:35:18.846Z,33.52
2019-05-26T10:37:56.504Z,33.61
2019-05-26T10:40:34.057Z,33.53
2019-05-26T10:43:11.316Z,33.58
2019-05-26T10:45:48.717Z,33.66
2019-05-26T10:48:27.345Z,33.62
2019-05-26T10:51:06.892Z,33.61
2019-05-26T10:53:44.336Z,33.18
2019-05-26T10:56:21.822Z,33.00
2019-05-26T10:58:59.863Z,32.80
2019-05-26T11:01:37.940Z,32.56
2019-05-26T11:04:15.201Z,32.04
2019-05-26T11:06:52.587Z,31.96
2019-05-26T11:09:30.259Z,31.79
2019-05-26T11:12:07.313Z,31.71
2019-05-26T11:14:44.974Z,31.67
2019-05-26T11:17:22.324Z,31.50
2019-05-26T11:20:00.780Z,31.51
2019-05-26T11:22:38.998Z,31.41
2019-05-26T11:25:16.559Z,31.51
2019-05-26T11:28:00.234Z,31.77
2019-05-26T11:30:44.318Z,31.54
2019-05-26T11:33:22.688Z,31.57
2019-05-26T11:36:00.528Z,31.73
2019-05-26T11:38:37.553Z,31.38
2019-05-26T11:41:15.879Z,31.23
2019-05-26T11:43:53.053Z,31.29
2019-05-26T11:46:31.060Z,31.56
2019-05-26T11:49:08.595Z,31.78
2019-05-26T11:51:47.036Z,31.81
2019-05-26T11:54:24.661Z,31.88
2019-05-26T11:57:02.265Z,31.80
2019-05-26T11:59:39.762Z,31.78
2019-05-26T12:02:18.141Z,31.69
2019-05-26T12:04:55.776Z,31.72
2019-05-26T12:07:33.027Z,31.77
2019-05-26T12:10:13.819Z,31.74
2019-05-26T12:12:51.604Z,31.91
2019-05-26T12:15:28.905Z,31.92
2019-05-26T12:18:07.071Z,31.46
2019-05-26T12:20:44.318Z,31.47
2019-05-26T12:23:23.713Z,31.51
2019-05-26T12:26:01.161Z,31.66
2019-05-26T12:28:39.221Z,31.90
2019-05-26T12:31:16.171Z,31.74
2019-05-26T12:33:54.442Z,31.93
2019-05-26T12:36:32.983Z,31.63
2019-05-26T12:39:11.283Z,31.56
2019-05-26T12:41:48.788Z,31.48
2019-05-26T12:44:26.754Z,31.64
2019-05-26T12:47:03.885Z,31.74
2019-05-26T12:49:41.854Z,31.80
2019-05-26T12:52:19.509Z,31.77
2019-05-26T12:54:57.773Z,31.68
2019-05-26T12:57:35.124Z,31.69
2019-05-26T13:00:13.657Z,31.44
2019-05-26T13:02:51.255Z,31.60
2019-05-26T13:05:29.763Z,31.64
2019-05-26T13:08:08.347Z,31.71
2019-05-26T13:10:46.118Z,31.44
2019-05-26T13:13:23.869Z,31.48
2019-05-26T13:16:02.479Z,31.71
2019-05-26T13:18:40.150Z,31.84
2019-05-26T13:21:17.494Z,31.48
2019-05-26T13:23:55.644Z,31.38
2019-05-26T13:26:34.439Z,31.46
2019-05-26T13:29:11.863Z,31.50
2019-05-26T13:31:49.127Z,31.58
2019-05-26T13:34:26.476Z,31.38
2019-05-26T13:37:04.211Z,31.25
2019-05-26T13:39:42.412Z,31.32
2019-05-26T13:42:19.996Z,31.51
2019-05-26T13:44:56.994Z,31.38
2019-05-26T13:47:35.095Z,31.32
2019-05-26T13:50:14.082Z,31.19
2019-05-26T13:52:51.189Z,31.01
2019-05-26T13:55:28.900Z,31.27
2019-05-26T13:58:06.969Z,31.47
2019-05-26T14:00:44.046Z,31.46
2019-05-26T14:03:24.185Z,31.01
2019-05-26T14:06:00.930Z,31.05
2019-05-26T14:08:38.843Z,31.38
2019-05-26T14:11:17.300Z,31.23
2019-05-26T14:13:55.109Z,31.24
2019-05-26T14:16:33.042Z,31.19
2019-05-26T14:19:11.633Z,31.41
2019-05-26T14:21:49.179Z,31.35
2019-05-26T14:24:27.176Z,31.08
2019-05-26T14:27:04.512Z,31.01
2019-05-26T14:29:43.134Z,30.98
2019-05-26T14:32:20.302Z,31.13
2019-05-26T14:34:57.869Z,31.15
2019-05-26T14:37:35.256Z,31.02
2019-05-26T14:40:13.764Z,31.16
2019-05-26T14:42:52.098Z,31.28
2019-05-26T14:45:29.635Z,31.27
2019-05-26T14:48:07.045Z,31.02
2019-05-26T14:50:44.984Z,31.09
2019-05-26T14:53:22.189Z,31.19
2019-05-26T14:56:00.437Z,31.23
2019-05-26T14:58:37.585Z,31.11
2019-05-26T15:01:15.381Z,31.19
2019-05-26T15:03:52.952Z,31.19
2019-05-26T15:06:31.160Z,31.27
2019-05-26T15:09:24.211Z,31.23
2019-05-26T15:11:49.557Z,31.13
2019-05-26T15:14:27.933Z,31.16
2019-05-26T15:17:06.127Z,31.22
2019-05-26T15:19:43.260Z,31.33
2019-05-26T15:22:21.105Z,31.24
2019-05-26T15:24:59.279Z,31.30
2019-05-26T15:27:37.138Z,31.36
2019-05-26T15:30:15.130Z,31.32
2019-05-26T15:32:53.144Z,31.42
2019-05-26T15:35:30.243Z,31.52
2019-05-26T15:38:08.275Z,31.56
2019-05-26T15:40:45.620Z,31.33
2019-05-26T15:43:23.254Z,31.22
2019-05-26T15:46:01.010Z,31.35
2019-05-26T15:48:38.311Z,31.28
2019-05-26T15:51:15.074Z,31.28
2019-05-26T15:53:53.607Z,31.24
2019-05-26T15:56:30.986Z,31.26
2019-05-26T15:59:08.713Z,31.51
2019-05-26T16:01:47.819Z,31.68
2019-05-26T16:04:27.610Z,31.39
2019-05-26T16:07:05.366Z,31.40
2019-05-26T16:09:42.752Z,31.53
2019-05-26T16:12:20.904Z,31.60
2019-05-26T16:14:59.786Z,31.47
2019-05-26T16:17:39.046Z,31.17
2019-05-26T16:20:18.169Z,31.19
2019-05-26T16:22:55.610Z,31.31
2019-05-26T16:25:33.526Z,31.37
2019-05-26T16:28:10.669Z,31.31
2019-05-26T16:30:48.051Z,31.10
2019-05-26T16:33:25.342Z,31.11
2019-05-26T16:36:02.746Z,31.19
2019-05-26T16:38:39.817Z,31.31
2019-05-26T16:41:17.725Z,31.46
2019-05-26T16:43:55.210Z,31.64
2019-05-26T16:46:32.970Z,31.54
2019-05-26T16:49:10.892Z,31.39
2019-05-26T16:51:48.511Z,31.54
2019-05-26T16:54:26.022Z,31.57
2019-05-26T16:57:04.009Z,31.55
2019-05-26T16:59:41.819Z,31.35
2019-05-26T17:02:19.238Z,31.71
2019-05-26T17:04:56.681Z,31.59
2019-05-26T17:07:34.545Z,31.51
2019-05-26T17:10:12.206Z,31.30
2019-05-26T17:12:49.486Z,31.39
2019-05-26T17:15:27.338Z,31.43
2019-05-26T17:18:05.254Z,31.46
2019-05-26T17:20:43.185Z,31.47
2019-05-26T17:23:20.886Z,31.56
2019-05-26T17:25:58.110Z,31.34
2019-05-26T17:28:36.452Z,31.34
2019-05-26T17:31:14.908Z,31.51
2019-05-26T17:33:52.317Z,31.39
2019-05-26T17:36:29.398Z,31.27
2019-05-26T17:39:08.365Z,31.11
2019-05-26T17:41:45.485Z,30.89
2019-05-26T17:44:22.781Z,30.80
2019-05-26T17:47:00.090Z,31.02
2019-05-26T17:49:38.605Z,31.15
2019-05-26T17:52:16.646Z,31.02
2019-05-26T17:54:54.287Z,30.88
2019-05-26T17:57:31.519Z,30.83
2019-05-26T18:00:11.442Z,30.99
2019-05-26T18:02:48.556Z,31.25
2019-05-26T18:05:25.826Z,31.13
2019-05-26T18:08:03.358Z,30.92
2019-05-26T18:10:41.386Z,31.26
2019-05-26T18:13:18.783Z,31.18
2019-05-26T18:15:56.950Z,31.10
2019-05-26T18:18:34.071Z,30.97
2019-05-26T18:21:12.056Z,31.16
2019-05-26T18:23:50.186Z,31.24
2019-05-26T18:26:27.979Z,30.96
2019-05-26T18:29:05.264Z,30.96
2019-05-26T18:31:44.422Z,31.15
2019-05-26T18:34:21.506Z,31.09
2019-05-26T18:36:58.979Z,30.80
2019-05-26T18:39:36.800Z,30.99
2019-05-26T18:42:15.671Z,31.04
2019-05-26T18:44:52.936Z,30.99
2019-05-26T18:47:30.184Z,31.02
2019-05-26T18:50:07.799Z,30.97
2019-05-26T18:52:46.003Z,31.18
2019-05-26T18:55:24.144Z,31.13
2019-05-26T18:58:01.729Z,31.00
2019-05-26T19:00:39.764Z,31.26
2019-05-26T19:03:17.644Z,31.48
2019-05-26T19:05:55.322Z,31.19
2019-05-26T19:08:34.005Z,31.02
2019-05-26T19:11:10.925Z,31.32
2019-05-26T19:13:48.799Z,31.39
2019-05-26T19:16:26.844Z,31.21
2019-05-26T19:19:04.085Z,31.13
2019-05-26T19:21:41.611Z,31.07
2019-05-26T19:24:19.170Z,31.02
2019-05-26T19:26:57.097Z,30.65
2019-05-26T19:29:33.990Z,30.73
2019-05-26T19:32:11.187Z,30.91
2019-05-26T19:34:49.324Z,30.94
2019-05-26T19:37:26.534Z,30.74
2019-05-26T19:40:04.094Z,31.06
2019-05-26T19:42:41.624Z,31.21
2019-05-26T19:45:22.383Z,30.97
2019-05-26T19:47:59.981Z,30.76
2019-05-26T19:50:38.042Z,30.98
2019-05-26T19:53:15.868Z,31.07
2019-05-26T19:55:54.037Z,31.08
2019-05-26T19:58:32.689Z,31.09
2019-05-26T20:01:10.130Z,31.20
2019-05-26T20:03:47.867Z,31.22
2019-05-26T20:06:26.244Z,31.08
2019-05-26T20:09:03.837Z,30.95
2019-05-26T20:11:42.348Z,31.05
2019-05-26T20:14:19.918Z,31.22
2019-05-26T20:16:59.284Z,30.75
2019-05-26T20:19:36.687Z,31.00
2019-05-26T20:22:14.528Z,31.22
2019-05-26T20:24:52.762Z,31.51
2019-05-26T20:27:30.698Z,31.44
2019-05-26T20:30:08.903Z,31.51
2019-05-26T20:32:46.465Z,31.59
2019-05-26T20:35:24.179Z,31.50
2019-05-26T20:38:02.661Z,31.32
2019-05-26T20:40:40.271Z,31.61
2019-05-26T20:43:18.049Z,31.65
2019-05-26T20:45:55.232Z,31.55
2019-05-26T20:48:33.187Z,31.23
2019-05-26T20:51:10.629Z,31.42
2019-05-26T20:53:48.566Z,31.52
2019-05-26T20:56:25.839Z,31.44
2019-05-26T20:59:03.718Z,31.34
2019-05-26T21:01:41.896Z,31.02
2019-05-26T21:04:19.645Z,31.35
2019-05-26T21:06:56.987Z,31.31
2019-05-26T21:09:35.990Z,31.32
2019-05-26T21:12:13.496Z,31.24
2019-05-26T21:14:50.667Z,31.28
2019-05-26T21:17:28.867Z,31.04
2019-05-26T21:20:07.629Z,30.93
2019-05-26T21:22:45.211Z,31.05
2019-05-26T21:25:23.021Z,31.08
2019-05-26T21:28:00.173Z,30.94
2019-05-26T21:30:38.978Z,30.86
2019-05-26T21:33:17.433Z,30.99
2019-05-26T21:35:55.030Z,30.54
2019-05-26T21:38:32.979Z,30.53
2019-05-26T21:41:11.583Z,30.73
2019-05-26T21:43:49.288Z,30.88
2019-05-26T21:46:26.838Z,30.73
2019-05-26T21:49:04.068Z,30.70
2019-05-26T21:51:42.346Z,30.95
2019-05-26T21:54:19.530Z,31.16
2019-05-26T21:56:56.952Z,31.17
2019-05-26T21:59:34.519Z,31.20
2019-05-26T22:02:12.544Z,31.30
2019-05-26T22:04:51.277Z,31.25
2019-05-26T22:07:29.289Z,31.16
2019-05-26T22:10:07.074Z,31.34
2019-05-26T22:12:45.177Z,31.35
2019-05-26T22:15:22.560Z,31.18
2019-05-26T22:18:00.757Z,31.25
2019-05-26T22:20:38.408Z,31.44
2019-05-26T22:23:16.547Z,31.15
2019-05-26T22:25:54.411Z,30.77
2019-05-26T22:28:32.019Z,30.66
2019-05-26T22:31:09.344Z,30.78
2019-05-26T22:33:46.922Z,30.88
2019-05-26T22:36:24.907Z,30.75
2019-05-26T22:39:02.217Z,30.84
2019-05-26T22:41:39.983Z,31.01
2019-05-26T22:44:17.949Z,30.81
2019-05-26T22:46:55.754Z,30.37
2019-05-26T22:49:33.656Z,30.59
2019-05-26T22:52:10.763Z,30.65
2019-05-26T22:54:49.437Z,30.57
2019-05-26T22:57:27.035Z,30.56
2019-05-26T23:00:04.131Z,30.78
2019-05-26T23:02:42.397Z,30.94
2019-05-26T23:05:21.394Z,30.85
2019-05-26T23:08:00.002Z,30.73
2019-05-26T23:10:38.234Z,30.78
2019-05-26T23:13:15.536Z,30.89
2019-05-26T23:15:53.429Z,30.62
2019-05-26T23:18:31.390Z,30.68
2019-05-26T23:21:09.111Z,30.68
2019-05-26T23:23:46.270Z,30.58
2019-05-26T23:26:24.586Z,30.41
2019-05-26T23:29:01.881Z,30.46
2019-05-26T23:31:38.842Z,30.70
2019-05-26T23:34:16.385Z,31.03
2019-05-26T23:36:54.650Z,30.73
2019-05-26T23:39:33.080Z,30.66
2019-05-26T23:42:10.917Z,30.70
2019-05-26T23:44:48.698Z,30.92
2019-05-26T23:47:26.848Z,30.78
2019-05-26T23:50:04.174Z,30.75
2019-05-26T23:52:41.710Z,31.11
2019-05-26T23:55:19.939Z,31.19
2019-05-26T23:57:58.162Z,31.07
